sensor_id;sensor_type;location;lat;lon;timestamp;pressure;altitude;pressure_sealevel;temperature;humidity
74429;BME280;62860;52.134;23.714;2022-12-11T00:04:19;1014.8;;;0.1;79.1
74429;BME280;62860;52.134;23.714;2022-12-11T00:09:59;1014.7;;;0.1;79.1
74429;BME280;62860;52.134;23.714;2022-12-11T00:14:19;1014.7;;;0.1;79.2
74429;BME280;62860;52.134;23.714;2022-12-11T00:19:59;1014.8;;;0.1;79.2
74429;BME280;62860;52.134;23.714;2022-12-11T00:24:19;1014.7;;;0.1;79.1
74429;BME280;62860;52.134;23.714;2022-12-11T00:29:35;1014.7;;;0.1;79.2
74429;BME280;62860;52.134;23.714;2022-12-11T00:34:51;1014.6;;;0;79.3
74429;BME280;62860;52.134;23.714;2022-12-11T00:39:57;1014.6;;;0.1;79.4
74429;BME280;62860;52.134;23.714;2022-12-11T00:44:19;1014.6;;;0.1;79.3
74429;BME280;62860;52.134;23.714;2022-12-11T00:49:45;1014.6;;;0.1;79.1
74429;BME280;62860;52.134;23.714;2022-12-11T00:54:49;1014.6;;;0.1;79.1
74429;BME280;62860;52.134;23.714;2022-12-11T00:59:29;1014.5;;;0.1;79.1
74429;BME280;62860;52.134;23.714;2022-12-11T01:04:33;1014.5;;;0;79.2
74429;BME280;62860;52.134;23.714;2022-12-11T01:09:59;1014.5;;;0;79.3
74429;BME280;62860;52.134;23.714;2022-12-11T01:14:39;1014.4;;;0;79.3
74429;BME280;62860;52.134;23.714;2022-12-11T01:19:59;1014.5;;;0.1;79.2
74429;BME280;62860;52.134;23.714;2022-12-11T01:24:29;1014.5;;;0.1;79.3
74429;BME280;62860;52.134;23.714;2022-12-11T01:29:37;1014.5;;;0;79.3
74429;BME280;62860;52.134;23.714;2022-12-11T01:34:53;1014.4;;;0;79.3
74429;BME280;62860;52.134;23.714;2022-12-11T01:40:02;1014.5;;;0;79.4
74429;BME280;62860;52.134;23.714;2022-12-11T01:45:22;1014.5;;;0;79.3
74429;BME280;62860;52.134;23.714;2022-12-11T01:49:59;1014.5;;;0;79.3
74429;BME280;62860;52.134;23.714;2022-12-11T01:54:51;1014.5;;;0;79.3
74429;BME280;62860;52.134;23.714;2022-12-11T01:59:40;1014.4;;;0;79.3
74429;BME280;62860;52.134;23.714;2022-12-11T02:04:19;1014.4;;;0;79.3
74429;BME280;62860;52.134;23.714;2022-12-11T02:09:59;1014.3;;;-0.1;79.4
74429;BME280;62860;52.134;23.714;2022-12-11T02:14:42;1014.2;;;-0.1;79.4
74429;BME280;62860;52.134;23.714;2022-12-11T02:20:03;1014.1;;;-0.1;79.4
74429;BME280;62860;52.134;23.714;2022-12-11T02:24:52;1014;;;0;79.5
74429;BME280;62860;52.134;23.714;2022-12-11T02:29:38;1013.9;;;-0.1;79.5
74429;BME280;62860;52.134;23.714;2022-12-11T02:34:54;1013.7;;;-0.1;79.6
74429;BME280;62860;52.134;23.714;2022-12-11T02:40:01;1013.7;;;-0.1;79.6
74429;BME280;62860;52.134;23.714;2022-12-11T02:44:20;1013.7;;;-0.1;79.6
74429;BME280;62860;52.134;23.714;2022-12-11T02:50:01;1013.6;;;-0.2;79.7
74429;BME280;62860;52.134;23.714;2022-12-11T02:54:52;1013.5;;;-0.1;79.7
74429;BME280;62860;52.134;23.714;2022-12-11T02:59:28;1013.4;;;-0.2;79.8
74429;BME280;62860;52.134;23.714;2022-12-11T03:04:29;1013.4;;;-0.1;79.8
74429;BME280;62860;52.134;23.714;2022-12-11T03:10:02;1013.4;;;-0.2;79.8
74429;BME280;62860;52.134;23.714;2022-12-11T03:14:41;1013.4;;;-0.2;79.9
74429;BME280;62860;52.134;23.714;2022-12-11T03:20:04;1013.4;;;-0.2;80.2
74429;BME280;62860;52.134;23.714;2022-12-11T03:24:31;1013.3;;;-0.2;80.1
74429;BME280;62860;52.134;23.714;2022-12-11T03:29:38;1013.3;;;-0.2;80.1
74429;BME280;62860;52.134;23.714;2022-12-11T03:34:54;1013.2;;;-0.2;80.2
74429;BME280;62860;52.134;23.714;2022-12-11T03:40:03;1013.2;;;-0.2;80.2
74429;BME280;62860;52.134;23.714;2022-12-11T03:44:29;1013.2;;;-0.3;80.3
74429;BME280;62860;52.134;23.714;2022-12-11T03:50:02;1013.2;;;-0.3;80.4
74429;BME280;62860;52.134;23.714;2022-12-11T03:54:51;1013.1;;;-0.3;80.5
74429;BME280;62860;52.134;23.714;2022-12-11T03:59:37;1013;;;-0.3;80.6
74429;BME280;62860;52.134;23.714;2022-12-11T04:04:29;1013;;;-0.3;80.7
74429;BME280;62860;52.134;23.714;2022-12-11T04:10:02;1013;;;-0.3;80.7
74429;BME280;62860;52.134;23.714;2022-12-11T04:14:41;1012.9;;;-0.3;80.7
74429;BME280;62860;52.134;23.714;2022-12-11T04:20:02;1012.8;;;-0.3;80.8
74429;BME280;62860;52.134;23.714;2022-12-11T04:24:19;1012.7;;;-0.3;80.8
74429;BME280;62860;52.134;23.714;2022-12-11T04:29:37;1012.6;;;-0.3;81
74429;BME280;62860;52.134;23.714;2022-12-11T04:35:01;1012.6;;;-0.3;81
74429;BME280;62860;52.134;23.714;2022-12-11T04:40:01;1012.5;;;-0.4;81
74429;BME280;62860;52.134;23.714;2022-12-11T04:44:19;1012.6;;;-0.4;81.1
74429;BME280;62860;52.134;23.714;2022-12-11T04:50:01;1012.5;;;-0.4;81.3
74429;BME280;62860;52.134;23.714;2022-12-11T04:54:51;1012.5;;;-0.5;81.4
74429;BME280;62860;52.134;23.714;2022-12-11T04:59:39;1012.4;;;-0.5;81.5
74429;BME280;62860;52.134;23.714;2022-12-11T05:04:19;1012.4;;;-0.5;81.5
74429;BME280;62860;52.134;23.714;2022-12-11T05:10:01;1012.4;;;-0.4;81.6
74429;BME280;62860;52.134;23.714;2022-12-11T05:14:39;1012.3;;;-0.4;81.5
74429;BME280;62860;52.134;23.714;2022-12-11T05:20:01;1012.3;;;-0.4;81.4
74429;BME280;62860;52.134;23.714;2022-12-11T05:24:19;1012.2;;;-0.4;81.4
74429;BME280;62860;52.134;23.714;2022-12-11T05:29:37;1012.2;;;-0.4;81.6
74429;BME280;62860;52.134;23.714;2022-12-11T05:34:53;1012.1;;;-0.4;81.6
74429;BME280;62860;52.134;23.714;2022-12-11T05:40:02;1012.1;;;-0.5;81.6
74429;BME280;62860;52.134;23.714;2022-12-11T05:44:27;1012;;;-0.5;81.5
74429;BME280;62860;52.134;23.714;2022-12-11T05:50:01;1011.8;;;-0.5;81.6
74429;BME280;62860;52.134;23.714;2022-12-11T05:55:01;1011.7;;;-0.6;81.6
74429;BME280;62860;52.134;23.714;2022-12-11T05:59:29;1011.6;;;-0.5;81.7
74429;BME280;62860;52.134;23.714;2022-12-11T06:04:19;1011.7;;;-0.5;81.7
74429;BME280;62860;52.134;23.714;2022-12-11T06:10:01;1011.6;;;-0.6;81.9
74429;BME280;62860;52.134;23.714;2022-12-11T06:14:41;1011.6;;;-0.6;81.8
74429;BME280;62860;52.134;23.714;2022-12-11T06:20:01;1011.5;;;-0.6;81.9
74429;BME280;62860;52.134;23.714;2022-12-11T06:24:27;1011.4;;;-0.7;82.1
74429;BME280;62860;52.134;23.714;2022-12-11T06:29:19;1011.4;;;-0.6;81.9
74429;BME280;62860;52.134;23.714;2022-12-11T06:34:53;1011.4;;;-0.6;82
74429;BME280;62860;52.134;23.714;2022-12-11T06:40:01;1011.4;;;-0.6;81.9
74429;BME280;62860;52.134;23.714;2022-12-11T06:44:40;1011.4;;;-0.6;81.9
74429;BME280;62860;52.134;23.714;2022-12-11T06:49:47;1011.3;;;-0.6;82
74429;BME280;62860;52.134;23.714;2022-12-11T06:54:51;1011.3;;;-0.7;82.2
74429;BME280;62860;52.134;23.714;2022-12-11T06:59:39;1011.3;;;-0.7;82.1
74429;BME280;62860;52.134;23.714;2022-12-11T07:04:29;1011.3;;;-0.7;82
74429;BME280;62860;52.134;23.714;2022-12-11T07:10:02;1011.3;;;-0.6;82.1
74429;BME280;62860;52.134;23.714;2022-12-11T07:14:41;1011.3;;;-0.6;82
74429;BME280;62860;52.134;23.714;2022-12-11T07:20:01;1011.2;;;-0.6;82.1
74429;BME280;62860;52.134;23.714;2022-12-11T07:24:29;1011.1;;;-0.6;82.1
74429;BME280;62860;52.134;23.714;2022-12-11T07:29:37;1011;;;-0.6;82.1
74429;BME280;62860;52.134;23.714;2022-12-11T07:34:53;1010.9;;;-0.6;82
74429;BME280;62860;52.134;23.714;2022-12-11T07:39:57;1010.7;;;-0.6;82
74429;BME280;62860;52.134;23.714;2022-12-11T07:44:19;1010.5;;;-0.6;82
74429;BME280;62860;52.134;23.714;2022-12-11T07:50:01;1010.4;;;-0.6;82.1
74429;BME280;62860;52.134;23.714;2022-12-11T07:54:51;1010.4;;;-0.6;82
74429;BME280;62860;52.134;23.714;2022-12-11T07:59:39;1010.2;;;-0.6;81.9
74429;BME280;62860;52.134;23.714;2022-12-11T08:04:19;1010.1;;;-0.6;81.9
74429;BME280;62860;52.134;23.714;2022-12-11T08:09:59;1010.1;;;-0.6;82.1
74429;BME280;62860;52.134;23.714;2022-12-11T08:14:31;1010;;;-0.5;81.8
74429;BME280;62860;52.134;23.714;2022-12-11T08:19:59;1009.8;;;-0.5;81.8
74429;BME280;62860;52.134;23.714;2022-12-11T08:24:37;1009.7;;;-0.5;81.8
74429;BME280;62860;52.134;23.714;2022-12-11T08:29:37;1009.7;;;-0.6;81.7
74429;BME280;62860;52.134;23.714;2022-12-11T08:34:53;1009.5;;;-0.6;81.8
74429;BME280;62860;52.134;23.714;2022-12-11T08:40:01;1009.4;;;-0.6;81.9
74429;BME280;62860;52.134;23.714;2022-12-11T08:44:39;1009.4;;;-0.5;81.8
74429;BME280;62860;52.134;23.714;2022-12-11T08:49:59;1009.3;;;-0.5;81.6
74429;BME280;62860;52.134;23.714;2022-12-11T08:54:37;1009.2;;;-0.5;81.7
74429;BME280;62860;52.134;23.714;2022-12-11T08:59:39;1009.1;;;-0.5;81.6
74429;BME280;62860;52.134;23.714;2022-12-11T09:04:20;1008.9;;;-0.5;81.6
74429;BME280;62860;52.134;23.714;2022-12-11T09:10:02;1008.8;;;-0.5;81.7
74429;BME280;62860;52.134;23.714;2022-12-11T09:14:19;1008.7;;;-0.5;81.7
74429;BME280;62860;52.134;23.714;2022-12-11T09:20:01;1008.6;;;-0.5;81.8
74429;BME280;62860;52.134;23.714;2022-12-11T09:24:19;1008.5;;;-0.5;81.8
74429;BME280;62860;52.134;23.714;2022-12-11T09:29:29;1008.4;;;-0.5;81.8
74429;BME280;62860;52.134;23.714;2022-12-11T09:34:53;1008.2;;;-0.5;81.8
74429;BME280;62860;52.134;23.714;2022-12-11T09:40:01;1008.2;;;-0.4;81.8
74429;BME280;62860;52.134;23.714;2022-12-11T09:44:31;1008.1;;;-0.4;81.8
74429;BME280;62860;52.134;23.714;2022-12-11T09:50:03;1007.9;;;-0.4;81.7
74429;BME280;62860;52.134;23.714;2022-12-11T09:54:52;1007.7;;;-0.4;81.6
74429;BME280;62860;52.134;23.714;2022-12-11T09:59:20;1007.7;;;-0.5;81.5
74429;BME280;62860;52.134;23.714;2022-12-11T10:04:43;1007.6;;;-0.5;81.6
74429;BME280;62860;52.134;23.714;2022-12-11T10:10:02;1007.4;;;-0.5;81.5
74429;BME280;62860;52.134;23.714;2022-12-11T10:14:40;1007.2;;;-0.5;81.6
74429;BME280;62860;52.134;23.714;2022-12-11T10:20:02;1007.2;;;-0.3;81.7
74429;BME280;62860;52.134;23.714;2022-12-11T10:24:28;1007.1;;;-0.2;81.6
74429;BME280;62860;52.134;23.714;2022-12-11T10:29:35;1007;;;-0.2;81.5
74429;BME280;62860;52.134;23.714;2022-12-11T10:34:53;1006.9;;;-0.2;81.2
74429;BME280;62860;52.134;23.714;2022-12-11T10:40:01;1006.9;;;-0.3;81.4
74429;BME280;62860;52.134;23.714;2022-12-11T10:44:30;1006.7;;;-0.4;81.4
74429;BME280;62860;52.134;23.714;2022-12-11T10:50:03;1006.6;;;-0.4;81.2
74429;BME280;62860;52.134;23.714;2022-12-11T10:54:46;1006.4;;;-0.4;81.5
74429;BME280;62860;52.134;23.714;2022-12-11T10:59:42;1006.4;;;-0.4;81.3
74429;BME280;62860;52.134;23.714;2022-12-11T11:04:30;1006.3;;;-0.4;80.9
74429;BME280;62860;52.134;23.714;2022-12-11T11:10:04;1006.3;;;-0.4;80.9
74429;BME280;62860;52.134;23.714;2022-12-11T11:14:41;1006.3;;;-0.4;80.9
74429;BME280;62860;52.134;23.714;2022-12-11T11:20:03;1006.2;;;-0.4;80.8
74429;BME280;62860;52.134;23.714;2022-12-11T11:24:28;1006.1;;;-0.5;80.9
74429;BME280;62860;52.134;23.714;2022-12-11T11:29:50;1006.1;;;-0.6;80.9
74429;BME280;62860;52.134;23.714;2022-12-11T11:34:51;1006;;;-0.6;81
74429;BME280;62860;52.134;23.714;2022-12-11T11:40:02;1006;;;-0.7;81.1
74429;BME280;62860;52.134;23.714;2022-12-11T11:44:30;1005.9;;;-0.7;81.3
74429;BME280;62860;52.134;23.714;2022-12-11T11:50:03;1005.7;;;-0.8;81.4
74429;BME280;62860;52.134;23.714;2022-12-11T11:54:53;1005.6;;;-0.9;81.5
74429;BME280;62860;52.134;23.714;2022-12-11T11:59:38;1005.7;;;-0.9;81.9
74429;BME280;62860;52.134;23.714;2022-12-11T12:04:19;1005.5;;;-0.9;81.9
74429;BME280;62860;52.134;23.714;2022-12-11T12:10:01;1005.6;;;-0.9;81.8
74429;BME280;62860;52.134;23.714;2022-12-11T12:14:47;1005.6;;;-1;81.7
74429;BME280;62860;52.134;23.714;2022-12-11T12:20:03;1005.7;;;-1;81.6
74429;BME280;62860;52.134;23.714;2022-12-11T12:24:32;1005.7;;;-1;81.7
74429;BME280;62860;52.134;23.714;2022-12-11T12:29:42;1005.6;;;-1.1;81.8
74429;BME280;62860;52.134;23.714;2022-12-11T12:34:46;1005.5;;;-1.1;81.9
74429;BME280;62860;52.134;23.714;2022-12-11T12:40:02;1005.5;;;-1.1;81.9
74429;BME280;62860;52.134;23.714;2022-12-11T12:44:30;1005.5;;;-1.1;81.9
74429;BME280;62860;52.134;23.714;2022-12-11T12:50:02;1005.5;;;-1.1;81.9
74429;BME280;62860;52.134;23.714;2022-12-11T12:54:21;1005.4;;;-1.1;81.7
74429;BME280;62860;52.134;23.714;2022-12-11T12:59:27;1005.4;;;-1.1;81.7
74429;BME280;62860;52.134;23.714;2022-12-11T13:04:43;1005.4;;;-1.2;81.8
74429;BME280;62860;52.134;23.714;2022-12-11T13:10:04;1005.3;;;-1.2;81.8
74429;BME280;62860;52.134;23.714;2022-12-11T13:15:04;1005.3;;;-1.2;81.6
74429;BME280;62860;52.134;23.714;2022-12-11T13:20:08;1005.3;;;-1.2;81.5
74429;BME280;62860;52.134;23.714;2022-12-11T13:24:32;1005.2;;;-1.2;81.7
74429;BME280;62860;52.134;23.714;2022-12-11T13:29:32;1005.2;;;-1.2;81.7
74429;BME280;62860;52.134;23.714;2022-12-11T13:35:04;1005.3;;;-1.2;81.5
74429;BME280;62860;52.134;23.714;2022-12-11T13:39:55;1005.2;;;-1.2;81.6
74429;BME280;62860;52.134;23.714;2022-12-11T13:45:04;1005.2;;;-1.3;81.6
74429;BME280;62860;52.134;23.714;2022-12-11T13:49:33;1005.1;;;-1.4;81.7
74429;BME280;62860;52.134;23.714;2022-12-11T13:54:19;1005.1;;;-1.4;81.8
74429;BME280;62860;52.134;23.714;2022-12-11T13:59:56;1005.1;;;-1.4;82
74429;BME280;62860;52.134;23.714;2022-12-11T14:05:04;1005.1;;;-1.5;81.9
74429;BME280;62860;52.134;23.714;2022-12-11T14:09:21;1005.1;;;-1.5;81.9
74429;BME280;62860;52.134;23.714;2022-12-11T14:15:04;1005.1;;;-1.5;81.8
74429;BME280;62860;52.134;23.714;2022-12-11T14:19:55;1005.1;;;-1.5;81.7
74429;BME280;62860;52.134;23.714;2022-12-11T14:24:47;1005.1;;;-1.5;81.7
74429;BME280;62860;52.134;23.714;2022-12-11T14:29:32;1005;;;-1.5;81.6
74429;BME280;62860;52.134;23.714;2022-12-11T14:35:05;1005;;;-1.5;81.6
74429;BME280;62860;52.134;23.714;2022-12-11T14:39:32;1004.9;;;-1.6;81.5
74429;BME280;62860;52.134;23.714;2022-12-11T14:45:04;1004.8;;;-1.6;81.6
74429;BME280;62860;52.134;23.714;2022-12-11T14:49:20;1004.8;;;-1.5;81.6
74429;BME280;62860;52.134;23.714;2022-12-11T14:54:40;1004.8;;;-1.6;81.5
74429;BME280;62860;52.134;23.714;2022-12-11T14:59:54;1004.7;;;-1.6;81.4
74429;BME280;62860;52.134;23.714;2022-12-11T15:05:09;1004.6;;;-1.6;81.4
74429;BME280;62860;52.134;23.714;2022-12-11T15:09:35;1004.6;;;-1.6;81.2
74429;BME280;62860;52.134;23.714;2022-12-11T15:15:04;1004.6;;;-1.6;81.2
74429;BME280;62860;52.134;23.714;2022-12-11T15:19:52;1004.7;;;-1.6;81.2
74429;BME280;62860;52.134;23.714;2022-12-11T15:24:29;1004.8;;;-1.6;81.2
74429;BME280;62860;52.134;23.714;2022-12-11T15:29:31;1004.8;;;-1.6;80.9
74429;BME280;62860;52.134;23.714;2022-12-11T15:35:19;1004.8;;;-1.5;80.9
74429;BME280;62860;52.134;23.714;2022-12-11T15:39:43;1004.9;;;-1.5;80.8
74429;BME280;62860;52.134;23.714;2022-12-11T15:45:02;1004.7;;;-1.5;80.7
74429;BME280;62860;52.134;23.714;2022-12-11T15:49:31;1004.6;;;-1.6;80.7
74429;BME280;62860;52.134;23.714;2022-12-11T15:54:39;1004.6;;;-1.6;80.6
74429;BME280;62860;52.134;23.714;2022-12-11T15:59:46;1004.7;;;-1.6;80.5
74429;BME280;62860;52.134;23.714;2022-12-11T16:05:02;1004.6;;;-1.6;80.7
74429;BME280;62860;52.134;23.714;2022-12-11T16:09:32;1004.6;;;-1.6;80.7
74429;BME280;62860;52.134;23.714;2022-12-11T16:15:02;1004.5;;;-1.6;80.7
74429;BME280;62860;52.134;23.714;2022-12-11T16:19:53;1004.5;;;-1.7;80.5
74429;BME280;62860;52.134;23.714;2022-12-11T16:24:42;1004.6;;;-1.7;80.4
74429;BME280;62860;52.134;23.714;2022-12-11T16:29:32;1004.7;;;-1.8;80.5
74429;BME280;62860;52.134;23.714;2022-12-11T16:35:04;1004.7;;;-1.8;80.4
74429;BME280;62860;52.134;23.714;2022-12-11T16:39:43;1004.6;;;-1.8;80.4
74429;BME280;62860;52.134;23.714;2022-12-11T16:45:02;1004.6;;;-1.8;80.4
74429;BME280;62860;52.134;23.714;2022-12-11T16:49:51;1004.8;;;-1.8;80.3
74429;BME280;62860;52.134;23.714;2022-12-11T16:54:19;1004.8;;;-1.7;80.1
74429;BME280;62860;52.134;23.714;2022-12-11T16:59:54;1004.9;;;-1.7;80.1
74429;BME280;62860;52.134;23.714;2022-12-11T17:05:02;1005.2;;;-1.7;79.8
74429;BME280;62860;52.134;23.714;2022-12-11T17:09:32;1005.1;;;-1.7;79.8
74429;BME280;62860;52.134;23.714;2022-12-11T17:15:04;1004.8;;;-1.7;79.7
74429;BME280;62860;52.134;23.714;2022-12-11T17:19:54;1004.8;;;-1.6;79.7
74429;BME280;62860;52.134;23.714;2022-12-11T17:24:41;1005.1;;;-1.6;79.4
74429;BME280;62860;52.134;23.714;2022-12-11T17:29:32;1005.2;;;-1.5;79.1
74429;BME280;62860;52.134;23.714;2022-12-11T17:35:02;1005.2;;;-1.6;79.3
74429;BME280;62860;52.134;23.714;2022-12-11T17:39:42;1005.2;;;-1.6;79.3
74429;BME280;62860;52.134;23.714;2022-12-11T17:45:02;1005.2;;;-1.7;79
74429;BME280;62860;52.134;23.714;2022-12-11T17:49:19;1005.1;;;-1.6;79
74429;BME280;62860;52.134;23.714;2022-12-11T17:54:44;1005.2;;;-1.7;78.9
74429;BME280;62860;52.134;23.714;2022-12-11T17:59:41;1005.2;;;-1.7;78.6
74429;BME280;62860;52.134;23.714;2022-12-11T18:04:52;1005.1;;;-1.8;78.8
74429;BME280;62860;52.134;23.714;2022-12-11T18:09:19;1005;;;-1.8;78.7
74429;BME280;62860;52.134;23.714;2022-12-11T18:14:54;1004.9;;;-1.8;78.5
74429;BME280;62860;52.134;23.714;2022-12-11T18:20:04;1004.8;;;-1.8;78.3
74429;BME280;62860;52.134;23.714;2022-12-11T18:24:42;1004.8;;;-1.9;78.4
74429;BME280;62860;52.134;23.714;2022-12-11T18:29:20;1004.8;;;-1.9;77.9
74429;BME280;62860;52.134;23.714;2022-12-11T18:34:32;1004.7;;;-1.9;77.5
74429;BME280;62860;52.134;23.714;2022-12-11T18:39:56;1004.8;;;-2;77.6
74429;BME280;62860;52.134;23.714;2022-12-11T18:45:04;1004.9;;;-2.1;77.9
74429;BME280;62860;52.134;23.714;2022-12-11T18:49:20;1005;;;-2.1;78
74429;BME280;62860;52.134;23.714;2022-12-11T18:54:50;1005;;;-2.1;77.7
74429;BME280;62860;52.134;23.714;2022-12-11T18:59:56;1005.1;;;-2.1;77.5
74429;BME280;62860;52.134;23.714;2022-12-11T19:04:40;1005.2;;;-2.1;77.6
74429;BME280;62860;52.134;23.714;2022-12-11T19:09:32;1005.1;;;-2.1;77.3
74429;BME280;62860;52.134;23.714;2022-12-11T19:15:04;1005.2;;;-2.2;77.3
74429;BME280;62860;52.134;23.714;2022-12-11T19:20:04;1005.2;;;-2.2;76.9
74429;BME280;62860;52.134;23.714;2022-12-11T19:24:21;1005.3;;;-2.3;77.2
74429;BME280;62860;52.134;23.714;2022-12-11T19:29:20;1005.2;;;-2.3;76.7
74429;BME280;62860;52.134;23.714;2022-12-11T19:34:51;1005.2;;;-2.4;76.7
74429;BME280;62860;52.134;23.714;2022-12-11T19:39:54;1005.3;;;-2.4;76.7
74429;BME280;62860;52.134;23.714;2022-12-11T19:45:02;1005.3;;;-2.5;76.6
74429;BME280;62860;52.134;23.714;2022-12-11T19:49:32;1005.3;;;-2.5;76.5
74429;BME280;62860;52.134;23.714;2022-12-11T19:54:50;1005.2;;;-2.5;76.3
74429;BME280;62860;52.134;23.714;2022-12-11T19:59:56;1005.5;;;-2.5;76.6
74429;BME280;62860;52.134;23.714;2022-12-11T20:04:50;1005.5;;;-2.5;76.2
74429;BME280;62860;52.134;23.714;2022-12-11T20:09:20;1005.8;;;-2.5;75.9
74429;BME280;62860;52.134;23.714;2022-12-11T20:14:52;1005.8;;;-2.5;75.7
74429;BME280;62860;52.134;23.714;2022-12-11T20:20:04;1006.2;;;-2.6;75.6
74429;BME280;62860;52.134;23.714;2022-12-11T20:24:42;1006.7;;;-2.5;75.3
74429;BME280;62860;52.134;23.714;2022-12-11T20:29:20;1006.6;;;-2.5;75.5
74429;BME280;62860;52.134;23.714;2022-12-11T20:34:20;1006.4;;;-2.5;75.5
74429;BME280;62860;52.134;23.714;2022-12-11T20:39:32;1006.3;;;-2.5;75.6
74429;BME280;62860;52.134;23.714;2022-12-11T20:45:04;1006.3;;;-2.6;75.2
74429;BME280;62860;52.134;23.714;2022-12-11T20:49:40;1006.1;;;-2.6;75.2
74429;BME280;62860;52.134;23.714;2022-12-11T20:54:52;1006;;;-2.7;75.3
74429;BME280;62860;52.134;23.714;2022-12-11T20:59:56;1006;;;-2.7;75.2
74429;BME280;62860;52.134;23.714;2022-12-11T21:04:52;1005.6;;;-2.7;75.5
74429;BME280;62860;52.134;23.714;2022-12-11T21:09:20;1005.7;;;-2.8;75.3
74429;BME280;62860;52.134;23.714;2022-12-11T21:14:54;1005.8;;;-2.9;75.2
74429;BME280;62860;52.134;23.714;2022-12-11T21:20:04;1005.8;;;-2.9;75.3
74429;BME280;62860;52.134;23.714;2022-12-11T21:24:42;1005.5;;;-2.9;75.3
74429;BME280;62860;52.134;23.714;2022-12-11T21:29:20;1005.7;;;-2.9;75.3
74429;BME280;62860;52.134;23.714;2022-12-11T21:34:40;1005.9;;;-2.9;75.3
74429;BME280;62860;52.134;23.714;2022-12-11T21:39:44;1006.2;;;-2.9;75.1
74429;BME280;62860;52.134;23.714;2022-12-11T21:45:04;1006.6;;;-2.9;74.9
74429;BME280;62860;52.134;23.714;2022-12-11T21:49:32;1006.5;;;-2.9;74.8
74429;BME280;62860;52.134;23.714;2022-12-11T21:54:40;1006.4;;;-2.9;74.8
74429;BME280;62860;52.134;23.714;2022-12-11T21:59:50;1006.4;;;-2.9;74.7
74429;BME280;62860;52.134;23.714;2022-12-11T22:04:48;1006.3;;;-2.9;74.8
74429;BME280;62860;52.134;23.714;2022-12-11T22:09:28;1006.4;;;-2.9;74.4
74429;BME280;62860;52.134;23.714;2022-12-11T22:14:58;1006.5;;;-2.9;74.3
74429;BME280;62860;52.134;23.714;2022-12-11T22:19:40;1006.4;;;-3;74.2
74429;BME280;62860;52.134;23.714;2022-12-11T22:24:38;1006.2;;;-3;74.5
74429;BME280;62860;52.134;23.714;2022-12-11T22:29:20;1006.3;;;-2.9;74.4
74429;BME280;62860;52.134;23.714;2022-12-11T22:34:30;1006.3;;;-2.9;74.5
74429;BME280;62860;52.134;23.714;2022-12-11T22:40:00;1006.5;;;-2.9;74.2
74429;BME280;62860;52.134;23.714;2022-12-11T22:44:52;1006.5;;;-2.9;74.1
74429;BME280;62860;52.134;23.714;2022-12-11T22:49:28;1006.4;;;-2.9;74.2
74429;BME280;62860;52.134;23.714;2022-12-11T22:54:48;1006.5;;;-2.9;74.1
74429;BME280;62860;52.134;23.714;2022-12-11T22:59:50;1006.5;;;-2.9;73.8
74429;BME280;62860;52.134;23.714;2022-12-11T23:04:48;1006.5;;;-3;73.9
74429;BME280;62860;52.134;23.714;2022-12-11T23:09:38;1006.6;;;-3;74.1
74429;BME280;62860;52.134;23.714;2022-12-11T23:15:00;1006.9;;;-3.1;74.1
74429;BME280;62860;52.134;23.714;2022-12-11T23:19:40;1006.8;;;-3.1;74.2
74429;BME280;62860;52.134;23.714;2022-12-11T23:24:36;1006.6;;;-3.1;74.2
74429;BME280;62860;52.134;23.714;2022-12-11T23:29:32;1006.6;;;-3.1;74.4
74429;BME280;62860;52.134;23.714;2022-12-11T23:34:28;1006.7;;;-3.1;74.4
74429;BME280;62860;52.134;23.714;2022-12-11T23:39:58;1006.9;;;-3.1;74.2
74429;BME280;62860;52.134;23.714;2022-12-11T23:44:50;1007;;;-3.1;74.1
74429;BME280;62860;52.134;23.714;2022-12-11T23:49:20;1006.9;;;-3.1;73.8
74429;BME280;62860;52.134;23.714;2022-12-11T23:54:40;1006.8;;;-3.2;74
74429;BME280;62860;52.134;23.714;2022-12-11T23:59:50;1006.9;;;-3.2;74
